createdAt,value
2022-09-01T00:00:26.493Z,68.35
2022-09-01T00:01:26.499Z,68.46
2022-09-01T00:02:26.574Z,68.26
2022-09-01T00:03:26.694Z,68.15
2022-09-01T00:04:26.527Z,68.15
2022-09-01T00:05:26.471Z,68.05
2022-09-01T00:06:26.432Z,68.15
2022-09-01T00:07:26.465Z,68.15
2022-09-01T00:08:26.406Z,67.95
2022-09-01T00:09:26.415Z,68.05
2022-09-01T00:10:26.389Z,68.19
2022-09-01T00:11:26.373Z,68.19
2022-09-01T00:12:26.365Z,68.15
2022-09-01T00:13:26.389Z,68.29
2022-09-01T00:14:29.811Z,68.39
2022-09-01T00:15:26.446Z,68.59
2022-09-01T00:16:26.325Z,68.59
2022-09-01T00:17:26.321Z,68.59
2022-09-01T00:18:26.300Z,68.79
2022-09-01T00:19:26.302Z,68.79
2022-09-01T00:20:26.269Z,68.90
2022-09-01T00:21:26.262Z,68.79
2022-09-01T00:22:26.268Z,69.00
2022-09-01T00:23:26.234Z,69.10
2022-09-01T00:24:26.463Z,69.20
2022-09-01T00:25:26.209Z,69.30
2022-09-01T00:26:26.200Z,69.54
2022-09-01T00:27:27.935Z,69.43
2022-09-01T00:28:28.746Z,69.54
2022-09-01T00:29:26.181Z,69.74
2022-09-01T00:30:26.166Z,69.74
2022-09-01T00:31:26.176Z,70.35
2022-09-01T00:32:26.144Z,70.25
2022-09-01T00:33:26.113Z,69.60
2022-09-01T00:34:26.115Z,69.40
2022-09-01T00:35:26.114Z,69.30
2022-09-01T00:36:26.091Z,69.30
2022-09-01T00:37:26.119Z,69.23
2022-09-01T00:38:26.073Z,69.23
2022-09-01T00:39:26.047Z,69.43
2022-09-01T00:40:26.137Z,69.43
2022-09-01T00:41:26.053Z,69.43
2022-09-01T00:42:26.017Z,69.43
2022-09-01T00:43:25.996Z,69.64
2022-09-01T00:44:25.996Z,70.45
2022-09-01T00:45:25.998Z,69.84
2022-09-01T00:46:29.044Z,69.78
2022-09-01T00:47:25.958Z,69.78
2022-09-01T00:48:25.964Z,69.78
2022-09-01T00:49:25.938Z,69.78
2022-09-01T00:50:25.937Z,69.78
2022-09-01T00:51:25.947Z,69.78
2022-09-01T00:52:25.900Z,69.78
2022-09-01T00:53:25.918Z,69.78
2022-09-01T00:54:25.884Z,69.87
2022-09-01T00:55:25.869Z,69.78
2022-09-01T00:56:25.873Z,69.78
2022-09-01T00:57:25.842Z,69.87
2022-09-01T00:58:25.859Z,69.67
2022-09-01T00:59:25.886Z,69.78
2022-09-01T01:00:26.773Z,69.78
2022-09-01T01:01:25.839Z,69.87
2022-09-01T01:02:25.835Z,69.87
2022-09-01T01:03:25.817Z,69.87
2022-09-01T01:05:43.752Z,69.87
2022-09-01T01:06:43.714Z,69.98
2022-09-01T01:07:43.699Z,70.08
2022-09-01T01:08:43.707Z,70.18
2022-09-01T01:11:04.765Z,70.08
2022-09-01T01:12:04.665Z,69.87
2022-09-01T01:13:04.671Z,69.78
2022-09-01T01:14:04.656Z,69.87
2022-09-01T01:15:04.699Z,69.47
2022-09-01T01:16:04.614Z,69.37
2022-09-01T01:17:04.741Z,69.98
2022-09-01T01:18:04.711Z,69.57
2022-09-01T01:19:04.621Z,69.57
2022-09-01T01:20:04.554Z,69.67
2022-09-01T01:21:04.734Z,69.78
2022-09-01T01:22:04.544Z,69.78
2022-09-01T01:23:04.555Z,69.87
2022-09-01T01:24:04.532Z,69.78
2022-09-01T01:25:04.689Z,69.87
2022-09-01T01:26:04.497Z,70.59
2022-09-01T01:27:04.546Z,69.78
2022-09-01T01:28:04.496Z,69.67
2022-09-01T01:29:04.490Z,69.87
2022-09-01T01:30:04.798Z,71.09
2022-09-01T01:31:04.582Z,70.11
2022-09-01T01:32:04.527Z,70.01
2022-09-01T01:33:04.418Z,70.11
2022-09-01T01:34:04.406Z,70.11
2022-09-01T01:35:04.417Z,70.21
2022-09-01T01:36:04.398Z,70.42
2022-09-01T01:37:04.429Z,70.62
2022-09-01T01:38:04.576Z,70.82
2022-09-01T01:39:04.439Z,71.06
2022-09-01T01:40:04.427Z,71.06
2022-09-01T01:41:04.453Z,70.96
2022-09-01T01:42:04.316Z,71.06
2022-09-01T01:43:04.429Z,71.16
2022-09-01T01:44:04.411Z,71.16
2022-09-01T01:45:04.298Z,71.26
2022-09-01T01:46:04.328Z,71.36
2022-09-01T01:47:04.264Z,71.36
2022-09-01T01:48:04.263Z,71.06
2022-09-01T01:49:04.302Z,71.06
2022-09-01T01:50:04.246Z,71.16
2022-09-01T01:51:04.221Z,71.36
2022-09-01T01:52:04.203Z,71.57
2022-09-01T01:53:04.212Z,71.60
2022-09-01T01:54:05.274Z,71.70
2022-09-01T01:55:05.306Z,71.91
2022-09-01T01:56:04.184Z,72.11
2022-09-01T01:57:04.176Z,72.01
2022-09-01T01:58:04.135Z,72.01
2022-09-01T01:59:04.135Z,72.01
2022-09-01T02:00:05.082Z,72.11
2022-09-01T02:01:04.183Z,72.11
2022-09-01T02:02:04.301Z,72.21
2022-09-01T02:03:04.097Z,72.21
2022-09-01T02:04:04.088Z,72.14
2022-09-01T02:05:05.040Z,72.45
2022-09-01T02:06:04.093Z,72.45
2022-09-01T02:07:04.040Z,72.55
2022-09-01T02:08:04.058Z,72.55
2022-09-01T02:09:04.048Z,72.65
2022-09-01T02:10:04.010Z,72.55
2022-09-01T02:11:04.020Z,72.65
2022-09-01T02:12:03.991Z,72.65
2022-09-01T02:13:04.002Z,72.65
2022-09-01T02:14:03.977Z,72.45
2022-09-01T02:15:03.989Z,72.65
2022-09-01T02:16:03.942Z,72.55
2022-09-01T02:17:04.001Z,72.45
2022-09-01T02:18:05.307Z,72.34
2022-09-01T02:19:03.928Z,72.45
2022-09-01T02:20:04.882Z,72.45
2022-09-01T02:21:03.893Z,72.45
2022-09-01T02:22:04.839Z,72.38
2022-09-01T02:23:03.879Z,72.38
2022-09-01T02:24:03.883Z,72.48
2022-09-01T02:25:04.814Z,72.34
2022-09-01T02:26:19.362Z,72.38
2022-09-01T02:27:04.825Z,72.38
2022-09-01T02:28:03.815Z,72.48
2022-09-01T02:29:03.820Z,72.58
2022-09-01T02:30:03.826Z,72.48
2022-09-01T02:31:04.534Z,72.28
2022-09-01T02:32:05.730Z,72.48
2022-09-01T02:33:03.781Z,72.58
2022-09-01T02:34:05.755Z,72.69
2022-09-01T02:35:03.894Z,72.69
2022-09-01T02:36:03.727Z,72.78
2022-09-01T02:37:03.718Z,72.89
2022-09-01T02:38:03.714Z,72.78
2022-09-01T02:39:03.726Z,73.10
2022-09-01T02:40:03.780Z,72.58
2022-09-01T02:41:03.681Z,72.58
2022-09-01T02:42:03.671Z,72.58
2022-09-01T02:43:03.657Z,72.48
2022-09-01T02:44:03.663Z,72.58
2022-09-01T02:45:03.655Z,72.58
2022-09-01T02:46:03.772Z,72.48
2022-09-01T02:47:03.627Z,72.28
2022-09-01T02:48:03.606Z,72.28
2022-09-01T02:49:03.593Z,72.38
2022-09-01T02:50:03.584Z,72.38
2022-09-01T02:51:03.572Z,72.48
2022-09-01T02:52:03.573Z,72.72
2022-09-01T02:53:04.061Z,73.02
2022-09-01T02:54:03.552Z,73.02
2022-09-01T02:55:03.524Z,72.92
2022-09-01T02:56:03.515Z,72.92
2022-09-01T02:57:03.500Z,72.82
2022-09-01T02:58:03.485Z,72.72
2022-09-01T02:59:05.113Z,72.72
2022-09-01T03:00:03.466Z,72.72
2022-09-01T03:01:03.509Z,72.72
2022-09-01T03:02:03.444Z,72.72
2022-09-01T03:03:03.443Z,72.72
2022-09-01T03:04:03.424Z,72.72
2022-09-01T03:05:03.481Z,72.75
2022-09-01T03:06:03.474Z,72.75
2022-09-01T03:07:03.386Z,72.65
2022-09-01T03:08:03.472Z,72.75
2022-09-01T03:09:03.370Z,72.75
2022-09-01T03:10:03.365Z,72.96
2022-09-01T03:11:03.389Z,72.96
2022-09-01T03:12:03.339Z,72.96
2022-09-01T03:13:03.323Z,72.86
2022-09-01T03:14:03.315Z,72.86
2022-09-01T03:15:03.320Z,72.75
2022-09-01T03:16:03.332Z,72.96
2022-09-01T03:17:03.335Z,72.96
2022-09-01T03:18:03.290Z,72.99
2022-09-01T03:19:03.339Z,73.19
2022-09-01T03:20:03.278Z,73.19
2022-09-01T03:21:03.241Z,73.30
2022-09-01T03:22:03.253Z,73.50
2022-09-01T03:23:03.218Z,73.50
2022-09-01T03:24:03.231Z,73.71
2022-09-01T03:25:03.207Z,73.81
2022-09-01T03:26:03.196Z,74.11
2022-09-01T03:27:03.183Z,74.11
2022-09-01T03:28:03.257Z,74.01
2022-09-01T03:29:03.143Z,74.01
2022-09-01T03:30:03.149Z,74.01
2022-09-01T03:31:03.229Z,74.11
2022-09-01T03:32:03.240Z,74.15
2022-09-01T03:33:03.115Z,74.15
2022-09-01T03:34:03.162Z,74.15
2022-09-01T03:35:03.088Z,74.05
2022-09-01T03:36:03.079Z,73.94
2022-09-01T03:37:03.086Z,73.74
2022-09-01T03:38:03.059Z,73.74
2022-09-01T03:39:04.020Z,73.64
2022-09-01T03:40:03.117Z,73.64
2022-09-01T03:41:03.018Z,73.54
2022-09-01T03:42:03.071Z,73.64
2022-09-01T03:43:03.387Z,73.64
2022-09-01T03:44:02.988Z,73.64
2022-09-01T03:45:03.014Z,73.84
2022-09-01T03:46:03.067Z,73.84
2022-09-01T03:47:02.975Z,74.05
2022-09-01T03:48:02.969Z,74.15
2022-09-01T03:49:02.936Z,74.15
2022-09-01T03:50:02.936Z,74.15
2022-09-01T03:51:03.108Z,74.15
2022-09-01T03:52:02.916Z,73.94
2022-09-01T03:53:02.916Z,73.84
2022-09-01T03:54:02.887Z,73.74
2022-09-01T03:55:02.920Z,73.54
2022-09-01T03:56:02.884Z,73.54
2022-09-01T03:57:02.849Z,73.64
2022-09-01T03:58:02.844Z,73.74
2022-09-01T03:59:02.840Z,73.84
2022-09-01T04:00:02.849Z,74.05
2022-09-01T04:01:02.959Z,73.98
2022-09-01T04:02:02.870Z,74.18
2022-09-01T04:03:02.858Z,74.18
2022-09-01T04:04:02.873Z,74.29
2022-09-01T04:05:07.750Z,74.49
2022-09-01T04:06:03.763Z,74.52
2022-09-01T04:07:03.745Z,74.73
2022-09-01T04:08:02.756Z,75.04
2022-09-01T04:09:03.293Z,75.24
2022-09-01T04:10:02.773Z,75.34
2022-09-01T04:11:02.726Z,75.44
2022-09-01T04:12:02.687Z,75.44
2022-09-01T04:13:02.709Z,75.54
2022-09-01T04:14:02.736Z,75.44
2022-09-01T04:15:02.668Z,75.34
2022-09-01T04:16:02.773Z,75.34
2022-09-01T04:17:02.642Z,75.24
2022-09-01T04:18:02.624Z,75.24
2022-09-01T04:19:02.640Z,75.13
2022-09-01T04:20:02.600Z,75.13
2022-09-01T04:21:02.640Z,75.13
2022-09-01T04:22:02.646Z,75.13
2022-09-01T04:23:02.646Z,75.13
2022-09-01T04:24:02.579Z,75.24
2022-09-01T04:25:02.592Z,75.17
2022-09-01T04:26:02.532Z,75.17
2022-09-01T04:27:02.682Z,75.07
2022-09-01T04:28:02.522Z,75.07
2022-09-01T04:29:02.521Z,75.07
2022-09-01T04:30:02.516Z,75.07
2022-09-01T04:31:02.489Z,75.07
2022-09-01T04:32:02.775Z,74.97
2022-09-01T04:33:02.518Z,74.97
2022-09-01T04:34:02.460Z,75.17
2022-09-01T04:35:02.550Z,74.97
2022-09-01T04:36:02.438Z,75.17
2022-09-01T04:37:02.434Z,74.97
2022-09-01T04:38:02.481Z,74.87
2022-09-01T04:39:02.407Z,74.97
2022-09-01T04:40:02.526Z,75.17
2022-09-01T04:41:02.370Z,74.97
2022-09-01T04:42:02.382Z,74.87
2022-09-01T04:43:02.381Z,74.97
2022-09-01T04:44:02.354Z,74.87
2022-09-01T04:45:10.077Z,74.87
2022-09-01T04:46:03.451Z,74.97
2022-09-01T04:47:02.317Z,74.97
2022-09-01T04:48:02.343Z,74.76
2022-09-01T04:49:02.367Z,74.76
2022-09-01T04:50:02.282Z,74.76
2022-09-01T04:51:02.322Z,74.76
2022-09-01T04:52:02.244Z,74.66
2022-09-01T04:53:02.240Z,74.66
2022-09-01T04:54:02.229Z,74.66
2022-09-01T04:55:02.219Z,74.76
2022-09-01T04:56:02.226Z,74.76
2022-09-01T04:57:02.200Z,74.87
2022-09-01T04:58:02.223Z,74.76
2022-09-01T04:59:02.182Z,74.63
2022-09-01T05:00:02.241Z,74.73
2022-09-01T05:01:02.294Z,74.63
2022-09-01T05:02:02.226Z,74.22
2022-09-01T05:03:02.134Z,74.22
2022-09-01T05:04:03.935Z,74.11
2022-09-01T05:05:02.123Z,74.08
2022-09-01T05:06:02.117Z,73.98
2022-09-01T05:07:02.085Z,73.77
2022-09-01T05:08:02.074Z,73.77
2022-09-01T05:09:02.060Z,73.77
2022-09-01T05:10:02.106Z,73.67
2022-09-01T05:11:02.036Z,73.67
2022-09-01T05:12:02.034Z,73.67
2022-09-01T05:13:02.193Z,73.67
2022-09-01T05:14:02.031Z,73.77
2022-09-01T05:15:02.686Z,73.88
2022-09-01T05:16:02.166Z,73.98
2022-09-01T05:17:02.005Z,74.08
2022-09-01T05:18:01.964Z,74.18
2022-09-01T05:19:01.948Z,73.98
2022-09-01T05:20:01.968Z,73.98
2022-09-01T05:21:01.929Z,74.08
2022-09-01T05:22:01.924Z,74.18
2022-09-01T05:23:01.941Z,74.38
2022-09-01T05:24:01.921Z,74.29
2022-09-01T05:25:01.880Z,74.29
2022-09-01T05:26:01.885Z,74.18
2022-09-01T05:27:01.862Z,74.38
2022-09-01T05:28:01.853Z,74.38
2022-09-01T05:29:01.865Z,74.59
2022-09-01T05:30:03.840Z,74.59
2022-09-01T05:31:01.909Z,74.59
2022-09-01T05:32:01.813Z,74.35
2022-09-01T05:33:01.870Z,74.35
2022-09-01T05:34:01.802Z,74.35
2022-09-01T05:35:01.812Z,74.45
2022-09-01T05:36:01.806Z,74.35
2022-09-01T05:37:01.753Z,74.21
2022-09-01T05:38:01.744Z,74.21
2022-09-01T05:39:02.310Z,74.11
2022-09-01T05:40:01.766Z,73.91
2022-09-01T05:41:01.705Z,73.81
2022-09-01T05:42:01.719Z,73.81
2022-09-01T05:43:01.714Z,73.81
2022-09-01T05:44:01.702Z,74.01
2022-09-01T05:45:01.688Z,74.42
2022-09-01T05:46:06.976Z,74.32
2022-09-01T05:47:02.715Z,74.42
2022-09-01T05:48:01.663Z,74.42
2022-09-01T05:49:01.635Z,74.52
2022-09-01T05:50:01.629Z,74.52
2022-09-01T05:51:01.617Z,74.62
2022-09-01T05:52:01.595Z,74.49
2022-09-01T05:53:01.589Z,74.38
2022-09-01T05:54:01.571Z,74.18
2022-09-01T05:55:01.570Z,73.97
2022-09-01T05:56:01.571Z,74.08
2022-09-01T05:57:23.375Z,74.08
2022-09-01T05:58:02.537Z,74.08
2022-09-01T06:00:02.510Z,74.38
2022-09-01T06:01:01.491Z,74.15
2022-09-01T06:02:01.643Z,74.04
2022-09-01T06:03:01.606Z,73.74
2022-09-01T06:04:01.467Z,73.54
2022-09-01T06:05:01.468Z,73.30
2022-09-01T06:06:02.402Z,72.89
2022-09-01T06:07:06.427Z,72.78
2022-09-01T06:08:02.431Z,72.69
2022-09-01T06:09:01.419Z,73.10
2022-09-01T06:10:01.405Z,73.30
2022-09-01T06:11:01.415Z,73.40
2022-09-01T06:12:01.397Z,73.30
2022-09-01T06:13:01.380Z,73.40
2022-09-01T06:14:01.356Z,73.60
2022-09-01T06:15:01.369Z,73.80
2022-09-01T06:16:01.392Z,73.80
2022-09-01T06:17:01.330Z,73.80
2022-09-01T06:18:01.324Z,73.77
2022-09-01T06:19:01.301Z,73.57
2022-09-01T06:20:01.318Z,73.26
2022-09-01T06:21:01.276Z,72.72
2022-09-01T06:22:01.271Z,72.62
2022-09-01T06:23:01.289Z,72.31
2022-09-01T06:24:01.257Z,72.52
2022-09-01T06:25:02.840Z,72.72
2022-09-01T06:26:01.238Z,72.41
2022-09-01T06:27:01.216Z,72.62
2022-09-01T06:28:01.206Z,72.62
2022-09-01T06:29:01.209Z,72.38
2022-09-01T06:30:01.213Z,72.17
2022-09-01T06:31:01.229Z,72.17
2022-09-01T06:32:01.183Z,72.17
2022-09-01T06:33:01.144Z,72.28
2022-09-01T06:34:02.106Z,72.25
2022-09-01T06:35:01.141Z,71.94
2022-09-01T06:36:01.121Z,71.73
2022-09-01T06:37:01.132Z,71.80
2022-09-01T06:38:01.105Z,71.60
2022-09-01T06:39:01.084Z,71.50
2022-09-01T06:40:01.085Z,71.26
2022-09-01T06:41:01.095Z,71.06
2022-09-01T06:42:01.055Z,71.06
2022-09-01T06:43:01.048Z,71.20
2022-09-01T06:44:01.038Z,71.94
2022-09-01T06:45:01.026Z,72.04
2022-09-01T06:46:01.008Z,72.25
2022-09-01T06:47:01.125Z,72.25
2022-09-01T06:48:01.011Z,72.55
2022-09-01T06:49:00.981Z,72.55
2022-09-01T06:50:00.966Z,72.45
2022-09-01T06:51:18.569Z,72.34
2022-09-01T06:52:01.984Z,72.34
2022-09-01T06:54:01.952Z,72.52
2022-09-01T06:55:04.491Z,72.31
2022-09-01T06:56:01.907Z,72.11
2022-09-01T06:57:00.918Z,72.17
2022-09-01T06:58:05.875Z,71.77
2022-09-01T06:59:02.645Z,71.47
2022-09-01T07:00:00.861Z,71.36
2022-09-01T07:01:01.102Z,71.13
2022-09-01T07:02:04.695Z,71.13
2022-09-01T07:03:01.840Z,71.03
2022-09-01T07:04:00.835Z,71.13
2022-09-01T07:05:00.816Z,70.92
2022-09-01T07:06:02.416Z,70.72
2022-09-01T07:07:53.315Z,70.72
2022-09-01T07:08:06.140Z,70.69
2022-09-01T07:12:25.102Z,70.48
2022-09-01T07:13:08.961Z,70.69
2022-09-01T07:14:17.209Z,70.59
2022-09-01T07:18:01.668Z,70.69
2022-09-01T07:19:00.650Z,70.69
2022-09-01T07:20:29.660Z,70.69
2022-09-01T07:21:05.489Z,70.65
2022-09-01T07:22:09.510Z,70.65
2022-09-01T07:23:05.766Z,70.65
2022-09-01T07:24:11.216Z,70.65
2022-09-01T07:25:16.912Z,70.56
2022-09-01T07:27:09.405Z,70.25
2022-09-01T07:28:01.555Z,70.25
2022-09-01T07:29:01.832Z,70.21
2022-09-01T07:30:00.542Z,70.21
2022-09-01T07:31:48.903Z,70.12
2022-09-01T07:35:01.484Z,69.37
2022-09-01T07:38:48.393Z,68.73
2022-09-01T07:42:31.580Z,70.35
2022-09-01T07:44:00.410Z,68.37
2022-09-01T07:45:25.466Z,68.37
2022-09-01T07:46:36.750Z,67.93
2022-09-01T07:48:01.384Z,67.12
2022-09-01T07:49:02.946Z,66.89
2022-09-01T07:50:24.523Z,66.89
2022-09-01T07:52:01.312Z,67.19
2022-09-01T07:53:00.300Z,66.69
2022-09-01T07:54:00.273Z,66.05
2022-09-01T07:55:00.278Z,66.05
2022-09-01T07:56:00.271Z,65.71
2022-09-01T07:57:00.264Z,65.61
2022-09-01T07:58:00.247Z,65.31
2022-09-01T07:59:00.245Z,65.41
2022-09-01T08:00:00.215Z,65.51
2022-09-01T08:01:00.203Z,64.90
2022-09-01T08:02:00.246Z,64.67
2022-09-01T08:03:00.293Z,64.47
2022-09-01T08:04:00.179Z,64.37
2022-09-01T08:05:00.187Z,64.27
2022-09-01T08:06:00.155Z,64.27
2022-09-01T08:07:00.165Z,64.14
2022-09-01T08:08:00.137Z,63.84
2022-09-01T08:09:00.130Z,63.73
2022-09-01T08:10:01.406Z,63.73
2022-09-01T08:11:07.346Z,64.34
2022-09-01T08:12:02.725Z,64.14
2022-09-01T08:13:00.086Z,64.34
2022-09-01T08:14:00.072Z,64.11
2022-09-01T08:15:41.102Z,64.92
2022-09-01T08:16:08.749Z,64.11
2022-09-01T08:17:16.822Z,64.72
2022-09-01T08:18:01.065Z,64.58
2022-09-01T08:19:00.069Z,63.67
2022-09-01T08:20:00.051Z,64.07
2022-09-01T08:21:00.031Z,63.14
2022-09-01T08:21:59.996Z,63.54
2022-09-01T08:22:59.967Z,63.51
2022-09-01T08:23:59.974Z,62.10
2022-09-01T08:24:59.951Z,61.70
2022-09-01T08:25:59.928Z,61.57
2022-09-01T08:26:59.928Z,60.87
2022-09-01T08:28:00.373Z,60.47
2022-09-01T08:28:59.917Z,59.96
2022-09-01T08:29:59.887Z,59.63
2022-09-01T08:30:59.954Z,59.23
2022-09-01T08:31:59.969Z,59.03
2022-09-01T08:33:00.104Z,58.93
2022-09-01T08:33:59.884Z,59.13
2022-09-01T08:34:59.890Z,58.80
2022-09-01T08:35:59.831Z,58.62
2022-09-01T08:36:59.852Z,59.00
2022-09-01T08:37:59.792Z,58.29
2022-09-01T08:38:59.798Z,58.60
2022-09-01T08:39:59.827Z,58.80
2022-09-01T08:40:59.883Z,58.70
2022-09-01T08:41:59.842Z,58.29
2022-09-01T08:42:59.758Z,58.17
2022-09-01T08:43:59.760Z,57.87
2022-09-01T08:44:59.800Z,57.77
2022-09-01T08:45:59.790Z,57.77
2022-09-01T08:46:59.736Z,57.46
2022-09-01T08:48:29.194Z,57.24
2022-09-01T08:50:00.684Z,57.14
2022-09-01T08:50:59.670Z,57.34
2022-09-01T08:52:00.892Z,56.74
2022-09-01T08:53:09.020Z,56.61
2022-09-01T08:54:00.639Z,56.10
2022-09-01T08:54:59.625Z,56.01
2022-09-01T08:55:59.635Z,55.98
2022-09-01T08:56:59.633Z,55.88
2022-09-01T08:58:00.350Z,55.88
2022-09-01T08:59:59.590Z,55.18
2022-09-01T09:00:59.562Z,55.08
2022-09-01T09:01:59.573Z,54.47
2022-09-01T09:02:59.590Z,54.97
2022-09-01T09:03:59.523Z,55.08
2022-09-01T09:04:59.528Z,54.65
2022-09-01T09:05:59.491Z,54.55
2022-09-01T09:06:59.505Z,54.25
2022-09-01T09:08:07.328Z,54.75
2022-09-01T09:09:01.116Z,54.45
2022-09-01T09:09:59.482Z,55.05
2022-09-01T09:10:59.441Z,55.15
2022-09-01T09:11:59.439Z,55.02
2022-09-01T09:12:59.422Z,54.62
2022-09-01T09:13:59.405Z,53.62
2022-09-01T09:14:59.440Z,53.72
2022-09-01T09:16:14.759Z,53.52
2022-09-01T09:17:00.392Z,53.22
2022-09-01T09:18:00.389Z,53.22
2022-09-01T09:19:01.321Z,53.72
2022-09-01T09:19:59.369Z,53.32
2022-09-01T09:20:59.335Z,53.12
2022-09-01T09:21:59.331Z,53.50
2022-09-01T09:22:59.814Z,53.39
2022-09-01T09:24:00.243Z,53.00
2022-09-01T09:24:59.298Z,52.49
2022-09-01T09:25:59.275Z,52.82
2022-09-01T09:26:59.293Z,53.12
2022-09-01T09:28:00.816Z,52.92
2022-09-01T09:28:59.238Z,52.52
2022-09-01T09:30:02.879Z,52.29
2022-09-01T09:31:00.264Z,52.29
2022-09-01T09:31:59.250Z,51.99
2022-09-01T09:33:30.813Z,51.59
2022-09-01T09:34:00.384Z,51.79
2022-09-01T09:34:59.568Z,51.09
2022-09-01T09:35:59.755Z,51.39
2022-09-01T09:36:59.162Z,51.79
2022-09-01T09:37:59.132Z,52.19
2022-09-01T09:38:59.153Z,51.39
2022-09-01T09:39:59.125Z,52.29
2022-09-01T09:41:18.490Z,51.69
2022-09-01T09:42:00.185Z,52.19
2022-09-01T09:42:59.613Z,52.39
2022-09-01T09:43:59.332Z,51.79
2022-09-01T09:44:59.081Z,51.29
2022-09-01T09:45:59.066Z,51.39
2022-09-01T09:46:59.095Z,50.99
2022-09-01T09:47:59.028Z,51.19
2022-09-01T09:48:59.017Z,51.12
2022-09-01T09:49:59.029Z,51.72
2022-09-01T09:50:58.987Z,51.79
2022-09-01T09:51:59.038Z,51.39
2022-09-01T09:52:58.974Z,51.57
2022-09-01T09:53:58.961Z,51.37
2022-09-01T09:54:58.978Z,50.57
2022-09-01T09:55:58.940Z,50.37
2022-09-01T09:56:58.930Z,50.54
2022-09-01T09:57:58.910Z,50.84
2022-09-01T09:58:58.911Z,50.04
2022-09-01T10:00:01.152Z,49.64
2022-09-01T10:00:58.942Z,50.44
2022-09-01T10:01:58.881Z,49.84
2022-09-01T10:02:58.878Z,50.12
2022-09-01T10:03:58.946Z,50.12
2022-09-01T10:04:58.885Z,50.02
2022-09-01T10:05:58.850Z,49.41
2022-09-01T10:06:58.843Z,48.52
2022-09-01T10:07:58.804Z,48.39
2022-09-01T10:08:58.818Z,49.09
2022-09-01T10:09:58.800Z,48.60
2022-09-01T10:10:58.973Z,48.90
2022-09-01T10:11:58.802Z,48.69
2022-09-01T10:12:58.778Z,48.60
2022-09-01T10:13:58.768Z,48.49
2022-09-01T10:14:58.766Z,48.27
2022-09-01T10:15:58.719Z,47.99
2022-09-01T10:16:58.792Z,48.19
2022-09-01T10:18:20.609Z,47.30
2022-09-01T10:18:59.712Z,47.77
2022-09-01T10:19:58.690Z,47.69
2022-09-01T10:20:58.675Z,48.32
2022-09-01T10:21:58.661Z,48.22
2022-09-01T10:22:58.682Z,49.02
2022-09-01T10:24:17.146Z,48.82
2022-09-01T10:24:59.644Z,47.30
2022-09-01T10:25:58.632Z,47.19
2022-09-01T10:26:58.606Z,48.02
2022-09-01T10:27:59.264Z,48.82
2022-09-01T10:28:58.603Z,48.61
2022-09-01T10:30:18.462Z,48.92
2022-09-01T10:30:59.593Z,49.14
2022-09-01T10:32:28.017Z,48.34
2022-09-01T10:33:06.782Z,47.72
2022-09-01T10:33:59.539Z,47.02
2022-09-01T10:34:59.559Z,46.81
2022-09-01T10:35:58.495Z,48.14
2022-09-01T10:36:59.081Z,48.54
2022-09-01T10:37:59.460Z,48.11
2022-09-01T10:39:04.966Z,48.02
2022-09-01T10:39:59.471Z,48.02
2022-09-01T10:40:58.496Z,48.11
2022-09-01T10:41:59.902Z,48.11
2022-09-01T10:42:58.456Z,47.89
2022-09-01T10:43:59.547Z,47.60
2022-09-01T10:44:58.401Z,47.49
2022-09-01T10:46:05.335Z,47.07
2022-09-01T10:47:01.996Z,48.07
2022-09-01T10:47:58.364Z,47.19
2022-09-01T10:49:03.138Z,46.81
2022-09-01T10:50:01.248Z,48.11
2022-09-01T10:50:58.348Z,47.42
2022-09-01T10:52:03.664Z,47.89
2022-09-01T10:52:59.335Z,46.69
2022-09-01T10:54:02.143Z,47.30
2022-09-01T10:54:58.286Z,46.99
2022-09-01T10:55:59.214Z,47.37
2022-09-01T10:57:03.986Z,47.37
2022-09-01T10:59:29.797Z,47.17
2022-09-01T10:59:59.507Z,46.35
2022-09-01T11:01:26.095Z,46.65
2022-09-01T11:02:59.556Z,46.65
2022-09-01T11:03:58.298Z,46.85
2022-09-01T11:04:58.268Z,46.97
2022-09-01T11:06:11.353Z,46.47
2022-09-01T11:07:14.823Z,46.97
2022-09-01T11:08:01.178Z,47.17
2022-09-01T11:08:58.145Z,46.67
2022-09-01T11:10:08.760Z,46.97
2022-09-01T11:10:59.127Z,46.67
2022-09-01T11:11:58.115Z,46.97
2022-09-01T11:12:58.112Z,47.17
2022-09-01T11:13:58.084Z,47.37
2022-09-01T11:14:58.075Z,46.59
2022-09-01T11:16:00.374Z,47.39
2022-09-01T11:16:58.143Z,47.79
2022-09-01T11:17:58.064Z,48.49
2022-09-01T11:18:58.055Z,47.60
2022-09-01T11:19:58.027Z,47.30
2022-09-01T11:20:58.060Z,46.69
2022-09-01T11:21:58.007Z,46.89
2022-09-01T11:22:57.990Z,47.09
2022-09-01T11:23:57.971Z,46.99
2022-09-01T11:25:02.471Z,46.42
2022-09-01T11:26:58.939Z,46.42
2022-09-01T11:27:57.932Z,46.72
2022-09-01T11:28:57.924Z,46.51
2022-09-01T11:29:57.936Z,46.72
2022-09-01T11:30:57.910Z,46.92
2022-09-01T11:31:57.968Z,46.62
2022-09-01T11:32:57.898Z,46.62
2022-09-01T11:33:57.879Z,46.31
2022-09-01T11:34:57.859Z,45.62
2022-09-01T11:35:57.854Z,45.72
2022-09-01T11:36:57.831Z,45.51
2022-09-01T11:37:57.831Z,45.31
2022-09-01T11:38:57.827Z,45.00
2022-09-01T11:39:57.824Z,44.47
2022-09-01T11:40:57.838Z,44.27
2022-09-01T11:42:00.921Z,44.15
2022-09-01T11:42:58.777Z,44.05
2022-09-01T11:43:57.765Z,43.93
2022-09-01T11:44:57.769Z,44.33
2022-09-01T11:45:57.792Z,45.21
2022-09-01T11:46:57.719Z,45.21
2022-09-01T11:47:57.747Z,45.39
2022-09-01T11:48:57.735Z,45.09
2022-09-01T11:49:57.677Z,44.59
2022-09-01T11:50:58.635Z,44.79
2022-09-01T11:51:57.660Z,44.09
2022-09-01T11:53:01.255Z,44.38
2022-09-01T11:53:58.651Z,44.38
2022-09-01T11:54:57.620Z,44.19
2022-09-01T11:55:57.640Z,44.69
2022-09-01T11:56:57.600Z,44.59
2022-09-01T11:57:57.600Z,44.69
2022-09-01T11:58:57.590Z,44.38
2022-09-01T11:59:57.584Z,43.97
2022-09-01T12:00:57.563Z,43.69
2022-09-01T12:01:57.717Z,43.99
2022-09-01T12:02:57.742Z,44.19
2022-09-01T12:03:57.536Z,43.99
2022-09-01T12:04:57.522Z,44.29
2022-09-01T12:05:57.507Z,44.19
2022-09-01T12:06:57.511Z,43.79
2022-09-01T12:07:58.438Z,43.61
2022-09-01T12:08:57.497Z,43.11
2022-09-01T12:09:57.459Z,43.41
2022-09-01T12:10:57.466Z,44.23
2022-09-01T12:11:57.444Z,44.93
2022-09-01T12:12:57.431Z,45.13
2022-09-01T12:13:57.427Z,45.13
2022-09-01T12:15:05.641Z,44.73
2022-09-01T12:16:17.549Z,44.73
2022-09-01T12:16:58.449Z,45.03
2022-09-01T12:17:57.412Z,45.13
2022-09-01T12:18:57.367Z,45.23
2022-09-01T12:19:57.351Z,44.93
2022-09-01T12:20:57.338Z,45.93
2022-09-01T12:21:57.341Z,45.43
2022-09-01T12:22:57.356Z,45.13
2022-09-01T12:23:57.334Z,45.03
2022-09-01T12:24:57.285Z,44.41
2022-09-01T12:25:57.285Z,44.51
2022-09-01T12:26:57.288Z,45.01
2022-09-01T12:27:57.272Z,45.13
2022-09-01T12:28:57.258Z,44.63
2022-09-01T12:29:58.234Z,45.03
2022-09-01T12:30:57.226Z,45.23
2022-09-01T12:31:57.322Z,45.55
2022-09-01T12:33:58.248Z,45.95
2022-09-01T12:34:57.191Z,45.53
2022-09-01T12:35:59.539Z,45.43
2022-09-01T12:36:57.175Z,45.23
2022-09-01T12:37:57.161Z,45.55
2022-09-01T12:38:57.132Z,45.45
2022-09-01T12:39:57.134Z,45.33
2022-09-01T12:40:57.111Z,45.13
2022-09-01T12:41:57.574Z,45.21
2022-09-01T12:42:57.204Z,43.91
2022-09-01T12:43:57.101Z,44.21
2022-09-01T12:44:57.072Z,44.21
2022-09-01T12:45:57.106Z,44.11
2022-09-01T12:46:57.058Z,44.13
2022-09-01T12:47:57.040Z,44.33
2022-09-01T12:48:57.493Z,43.91
2022-09-01T12:49:57.017Z,43.01
2022-09-01T12:50:57.034Z,43.23
2022-09-01T12:51:57.004Z,43.03
2022-09-01T12:52:56.991Z,43.13
2022-09-01T12:53:58.492Z,43.91
2022-09-01T12:54:56.987Z,43.73
2022-09-01T12:55:56.996Z,43.73
2022-09-01T12:56:56.947Z,43.83
2022-09-01T12:57:56.939Z,44.23
2022-09-01T12:58:56.909Z,44.43
2022-09-01T12:59:56.929Z,44.53
2022-09-01T13:00:57.028Z,44.63
2022-09-01T13:01:57.040Z,44.63
2022-09-01T13:03:56.876Z,44.83
2022-09-01T13:04:57.266Z,44.33
2022-09-01T13:05:56.847Z,44.35
2022-09-01T13:06:57.738Z,43.95
2022-09-01T13:07:56.825Z,44.55
2022-09-01T13:08:56.933Z,45.15
2022-09-01T13:09:56.828Z,45.25
2022-09-01T13:10:56.793Z,44.55
2022-09-01T13:12:12.249Z,44.03
2022-09-01T13:12:57.780Z,43.33
2022-09-01T13:13:56.746Z,44.25
2022-09-01T13:14:56.737Z,44.25
2022-09-01T13:15:56.993Z,43.75
2022-09-01T13:16:57.234Z,44.27
2022-09-01T13:17:56.719Z,44.45
2022-09-01T13:19:12.233Z,43.85
2022-09-01T13:19:58.646Z,44.15
2022-09-01T13:20:56.687Z,43.65
2022-09-01T13:21:56.699Z,43.85